createdAt,value
2018-11-03T00:08:16.396Z,67.55
2018-11-03T00:16:37.421Z,67.51
2018-11-03T00:24:58.430Z,67.10
2018-11-03T00:33:19.480Z,66.99
2018-11-03T00:41:40.489Z,67.09
2018-11-03T00:50:01.543Z,67.61
2018-11-03T00:58:22.616Z,66.93
2018-11-03T01:06:43.640Z,67.80
2018-11-03T01:15:04.644Z,67.45
2018-11-03T01:23:25.687Z,67.59
2018-11-03T01:31:46.673Z,67.98
2018-11-03T01:40:07.691Z,67.28
2018-11-03T01:48:28.712Z,67.85
2018-11-03T01:56:49.787Z,67.65
2018-11-03T02:05:10.850Z,67.30
2018-11-03T02:13:31.880Z,67.32
2018-11-03T02:21:52.900Z,67.95
2018-11-03T02:30:13.926Z,67.87
2018-11-03T02:38:34.919Z,68.53
2018-11-03T02:46:55.951Z,67.84
2018-11-03T02:55:16.939Z,68.20
2018-11-03T03:03:38.992Z,68.23
2018-11-03T03:11:59.994Z,68.01
2018-11-03T03:20:21.008Z,68.47
2018-11-03T03:28:42.109Z,68.00
2018-11-03T03:37:03.033Z,68.03
2018-11-03T03:45:24.014Z,68.00
2018-11-03T03:53:45.120Z,68.56
2018-11-03T04:02:06.165Z,67.77
2018-11-03T04:10:27.208Z,67.60
2018-11-03T04:18:48.233Z,67.40
2018-11-03T04:27:09.238Z,67.21
2018-11-03T04:35:30.250Z,67.36
2018-11-03T04:43:51.276Z,67.75
2018-11-03T04:52:12.281Z,67.66
2018-11-03T05:00:33.294Z,67.80
2018-11-03T05:08:54.286Z,67.68
2018-11-03T05:17:15.312Z,67.68
2018-11-03T05:25:36.322Z,68.27
2018-11-03T05:33:57.325Z,67.87
2018-11-03T05:42:18.386Z,67.65
2018-11-03T05:50:39.464Z,68.26
2018-11-03T05:59:00.660Z,68.23
2018-11-03T06:07:21.953Z,67.82
2018-11-03T06:15:43.433Z,68.27
2018-11-03T06:24:04.738Z,68.31
2018-11-03T06:32:26.861Z,67.69
2018-11-03T06:40:47.947Z,68.30
2018-11-03T06:49:09.303Z,68.37
2018-11-03T06:57:30.554Z,68.54
2018-11-03T07:05:51.702Z,68.13
2018-11-03T07:14:12.949Z,68.08
2018-11-03T07:22:34.239Z,68.63
2018-11-03T07:30:55.241Z,67.85
2018-11-03T07:39:16.245Z,69.34
2018-11-03T07:47:37.273Z,70.10
2018-11-03T07:55:58.276Z,68.02
2018-11-03T08:04:19.302Z,68.58
2018-11-03T08:12:40.324Z,68.40
2018-11-03T08:21:01.325Z,68.49
2018-11-03T08:29:22.333Z,67.62
2018-11-03T08:37:43.336Z,67.96
2018-11-03T08:46:04.349Z,67.93
2018-11-03T08:54:25.349Z,68.04
2018-11-03T09:02:46.421Z,68.51
2018-11-03T09:11:07.433Z,68.39
2018-11-03T09:19:28.425Z,70.15
2018-11-03T09:27:49.450Z,69.56
2018-11-03T09:36:10.499Z,68.41
2018-11-03T09:44:31.508Z,65.57
2018-11-03T09:52:52.554Z,65.94
2018-11-03T10:01:13.668Z,63.03
2018-11-03T10:09:34.693Z,61.88
2018-11-03T10:17:55.690Z,62.17
2018-11-03T10:26:16.678Z,61.37
2018-11-03T10:34:37.698Z,59.59
2018-11-03T10:42:58.705Z,60.01
2018-11-03T10:51:19.732Z,59.71
2018-11-03T10:59:40.738Z,57.64
2018-11-03T11:08:01.732Z,58.07
2018-11-03T11:16:22.768Z,56.08
2018-11-03T11:24:44.015Z,54.81
2018-11-03T11:33:04.969Z,54.01
2018-11-03T11:41:25.996Z,53.85
2018-11-03T11:49:47.019Z,52.40
2018-11-03T11:58:08.015Z,49.31
2018-11-03T12:06:29.207Z,48.13
2018-11-03T12:14:50.245Z,45.56
2018-11-03T12:23:11.306Z,44.76
2018-11-03T12:31:32.321Z,41.19
2018-11-03T12:39:53.353Z,37.25
2018-11-03T12:48:14.501Z,36.49
2018-11-03T12:56:35.416Z,36.40
2018-11-03T13:04:56.468Z,33.11
2018-11-03T13:13:17.487Z,34.04
2018-11-03T13:21:38.464Z,32.92
2018-11-03T13:29:59.576Z,30.93
2018-11-03T13:38:20.586Z,31.58
2018-11-03T13:46:41.585Z,31.36
2018-11-03T13:55:02.678Z,30.71
2018-11-03T14:03:23.681Z,30.30
2018-11-03T14:11:44.694Z,30.56
2018-11-03T14:20:05.740Z,29.16
2018-11-03T14:28:27.056Z,30.31
2018-11-03T14:36:48.058Z,32.55
2018-11-03T14:45:09.116Z,32.55
2018-11-03T14:53:30.114Z,32.40
2018-11-03T15:01:51.125Z,35.17
2018-11-03T15:10:12.283Z,38.58
2018-11-03T15:18:33.630Z,40.17
2018-11-03T15:26:54.660Z,41.94
2018-11-03T15:35:15.665Z,43.80
2018-11-03T15:43:36.684Z,46.37
2018-11-03T15:51:57.712Z,49.77
2018-11-03T16:00:18.709Z,50.98
2018-11-03T16:08:40.077Z,52.14
2018-11-03T16:17:01.165Z,54.69
2018-11-03T16:25:22.209Z,55.16
2018-11-03T16:33:43.218Z,55.97
2018-11-03T16:42:04.301Z,55.90
2018-11-03T16:50:25.341Z,56.79
2018-11-03T16:58:46.455Z,57.71
2018-11-03T17:07:07.434Z,57.33
2018-11-03T17:15:28.454Z,59.06
2018-11-03T17:23:49.546Z,59.09
2018-11-03T17:32:10.527Z,59.59
2018-11-03T17:40:31.525Z,60.12
2018-11-03T17:48:52.639Z,60.40
2018-11-03T17:57:13.654Z,60.65
2018-11-03T18:05:34.652Z,60.52
2018-11-03T18:13:55.654Z,60.80
2018-11-03T18:22:16.944Z,61.91
2018-11-03T18:30:38.052Z,61.22
2018-11-03T18:38:59.021Z,61.46
2018-11-03T18:47:20.065Z,61.72
2018-11-03T18:55:41.114Z,61.81
2018-11-03T19:04:02.101Z,62.04
2018-11-03T19:12:23.641Z,62.19
2018-11-03T19:20:44.639Z,62.40
2018-11-03T19:29:05.614Z,61.99
2018-11-03T19:37:26.595Z,62.85
2018-11-03T19:45:47.708Z,63.45
2018-11-03T19:54:08.724Z,63.29
2018-11-03T20:02:29.791Z,62.61
2018-11-03T20:10:50.749Z,62.77
2018-11-03T20:19:11.856Z,63.80
2018-11-03T20:27:32.886Z,62.88
2018-11-03T20:35:53.976Z,63.45
2018-11-03T20:44:14.982Z,63.44
2018-11-03T20:52:36.034Z,63.49
2018-11-03T21:00:57.053Z,62.72
2018-11-03T21:09:18.063Z,63.20
2018-11-03T21:17:39.034Z,63.87
2018-11-03T21:26:00.040Z,63.68
2018-11-03T21:34:21.022Z,63.25
2018-11-03T21:42:42.022Z,64.05
2018-11-03T21:51:03.021Z,63.01
2018-11-03T21:59:24.086Z,62.81
2018-11-03T22:07:45.068Z,63.50
2018-11-03T22:16:06.085Z,63.77
2018-11-03T22:24:27.219Z,63.83
2018-11-03T22:32:48.237Z,63.95
2018-11-03T22:41:09.235Z,63.86
2018-11-03T22:49:30.272Z,63.66
2018-11-03T22:57:51.295Z,63.53
2018-11-03T23:06:12.296Z,64.51
2018-11-03T23:14:33.319Z,63.37
2018-11-03T23:22:54.352Z,64.33
2018-11-03T23:31:15.373Z,63.89
2018-11-03T23:39:36.453Z,63.79
2018-11-03T23:47:57.476Z,64.78
2018-11-03T23:56:18.458Z,64.98
